createdAt,value
2019-02-07T00:00:03.864Z,62.20
2019-02-07T00:04:58.538Z,68.07
2019-02-07T00:09:53.204Z,63.93
2019-02-07T00:14:47.934Z,66.90
2019-02-07T00:19:42.671Z,62.60
2019-02-07T00:24:42.956Z,77.20
2019-02-07T00:29:34.444Z,72.73
2019-02-07T00:34:29.121Z,76.17
2019-02-07T00:39:23.727Z,73.60
2019-02-07T00:44:18.322Z,76.40
2019-02-07T00:49:12.988Z,72.07
2019-02-07T00:54:07.729Z,72.47
2019-02-07T00:59:02.480Z,77.30
2019-02-07T01:03:57.076Z,73.03
2019-02-07T01:08:51.745Z,72.87
2019-02-07T01:13:46.363Z,75.00
2019-02-07T01:18:41.008Z,73.97
2019-02-07T01:23:35.602Z,64.70
2019-02-07T01:28:30.263Z,68.17
2019-02-07T01:33:25.153Z,68.67
2019-02-07T01:38:19.718Z,71.73
2019-02-07T01:43:14.317Z,65.17
2019-02-07T01:48:08.906Z,67.97
2019-02-07T01:53:03.511Z,67.20
2019-02-07T01:57:58.157Z,69.70
2019-02-07T02:02:52.758Z,69.30
2019-02-07T02:07:47.561Z,65.17
2019-02-07T02:12:42.295Z,74.77
2019-02-07T02:17:36.881Z,71.30
2019-02-07T02:22:31.480Z,62.03
2019-02-07T02:27:26.507Z,69.40
2019-02-07T02:32:21.111Z,74.17
2019-02-07T02:37:15.689Z,71.40
2019-02-07T02:42:10.302Z,71.67
2019-02-07T02:47:05.047Z,68.80
2019-02-07T02:51:59.704Z,78.00
2019-02-07T02:56:54.282Z,80.40
2019-02-07T03:01:50.519Z,76.50
2019-02-07T03:06:46.813Z,70.77
2019-02-07T03:11:43.802Z,69.07
2019-02-07T03:16:38.243Z,71.77
2019-02-07T03:21:37.202Z,70.07
2019-02-07T03:26:42.398Z,70.73
2019-02-07T03:31:41.702Z,69.53
2019-02-07T03:36:37.924Z,70.43
2019-02-07T03:41:34.160Z,65.30
2019-02-07T03:46:45.389Z,71.83
2019-02-07T03:51:57.735Z,69.87
2019-02-07T03:57:05.740Z,66.50
2019-02-07T04:02:17.406Z,69.27
2019-02-07T04:07:16.547Z,66.37
2019-02-07T04:12:18.662Z,65.13
2019-02-07T04:17:15.003Z,69.90
2019-02-07T04:22:09.450Z,68.23
2019-02-07T04:27:17.467Z,70.77
2019-02-07T04:32:28.745Z,72.43
2019-02-07T04:37:30.481Z,69.03
2019-02-07T04:42:42.747Z,76.33
2019-02-07T04:47:41.441Z,79.43
2019-02-07T04:52:53.965Z,78.20
2019-02-07T04:57:56.254Z,74.63
2019-02-07T05:02:50.624Z,77.73
2019-02-07T05:07:52.813Z,67.17
2019-02-07T05:12:49.064Z,64.93
2019-02-07T05:17:57.210Z,63.63
2019-02-07T05:23:09.535Z,66.80
2019-02-07T05:28:05.851Z,74.33
2019-02-07T05:33:02.104Z,78.80
2019-02-07T05:38:03.770Z,76.83
2019-02-07T05:43:00.039Z,76.67
2019-02-07T05:47:59.269Z,81.00
2019-02-07T05:53:11.570Z,77.70
2019-02-07T05:58:10.921Z,71.83
2019-02-07T06:03:10.397Z,77.00
2019-02-07T06:08:09.473Z,80.50
2019-02-07T06:13:21.651Z,75.83
2019-02-07T06:18:26.830Z,82.60
2019-02-07T06:23:28.640Z,75.83
2019-02-07T06:28:41.037Z,82.70
2019-02-07T06:33:53.429Z,82.33
2019-02-07T06:39:05.869Z,79.40
2019-02-07T06:44:03.168Z,75.43
2019-02-07T06:49:01.886Z,77.53
2019-02-07T06:53:58.131Z,77.30
2019-02-07T06:58:55.086Z,77.57
2019-02-07T07:03:50.418Z,84.47
2019-02-07T07:08:56.316Z,80.20
2019-02-07T07:13:52.596Z,77.07
2019-02-07T07:19:05.056Z,81.27
2019-02-07T07:23:59.412Z,79.30
2019-02-07T07:29:13.976Z,73.83
2019-02-07T07:34:11.615Z,82.73
2019-02-07T07:39:09.143Z,76.90
2019-02-07T07:44:15.512Z,78.90
2019-02-07T07:49:11.719Z,75.17
2019-02-07T07:54:24.562Z,73.80
2019-02-07T07:59:20.774Z,82.50
2019-02-07T08:04:15.245Z,84.33
2019-02-07T08:09:22.710Z,75.53
2019-02-07T08:14:19.007Z,71.67
2019-02-07T08:19:19.234Z,77.63
2019-02-07T08:24:30.627Z,75.03
2019-02-07T08:29:29.583Z,82.50
2019-02-07T08:34:40.376Z,78.90
2019-02-07T08:39:53.325Z,72.47
2019-02-07T08:44:55.137Z,69.27
2019-02-07T08:49:52.481Z,73.90
2019-02-07T08:54:51.301Z,77.27
2019-02-07T08:59:50.008Z,73.40
2019-02-07T09:04:55.721Z,78.70
2019-02-07T09:09:51.961Z,72.60
2019-02-07T09:15:07.051Z,80.33
2019-02-07T09:20:03.385Z,73.63
2019-02-07T09:25:03.295Z,79.63
2019-02-07T09:30:11.739Z,75.40
2019-02-07T09:35:13.804Z,68.73
2019-02-07T09:40:29.137Z,78.33
2019-02-07T09:45:45.519Z,75.40
2019-02-07T09:50:42.393Z,77.83
2019-02-07T09:55:48.107Z,76.57
2019-02-07T10:01:01.070Z,83.10
2019-02-07T10:06:12.692Z,72.67
2019-02-07T10:11:11.980Z,77.87
2019-02-07T10:16:08.262Z,78.63
2019-02-07T10:21:13.312Z,76.57
2019-02-07T10:26:25.820Z,73.03
2019-02-07T10:31:25.572Z,76.40
2019-02-07T10:36:26.809Z,73.40
2019-02-07T10:41:26.290Z,72.53
2019-02-07T10:46:30.154Z,73.67
2019-02-07T10:51:43.825Z,79.17
2019-02-07T10:56:38.668Z,70.97
2019-02-07T11:01:36.483Z,69.80
2019-02-07T11:06:50.957Z,71.17
2019-02-07T11:11:47.140Z,72.73
2019-02-07T11:16:46.214Z,75.97
2019-02-07T11:21:47.095Z,74.87
2019-02-07T11:26:43.321Z,68.07
2019-02-07T11:31:42.208Z,76.60
2019-02-07T11:36:39.020Z,73.37
2019-02-07T11:41:50.154Z,72.33
2019-02-07T11:46:48.858Z,71.33
2019-02-07T11:51:51.371Z,64.27
2019-02-07T11:57:04.063Z,65.47
2019-02-07T12:02:09.070Z,69.43
2019-02-07T12:07:22.252Z,59.50
2019-02-07T12:12:30.745Z,53.80
2019-02-07T12:17:42.891Z,58.73
2019-02-07T12:22:48.091Z,56.20
2019-02-07T12:27:44.869Z,55.47
2019-02-07T12:32:41.123Z,56.10
2019-02-07T12:37:37.445Z,55.57
2019-02-07T12:42:47.945Z,63.93
2019-02-07T12:48:02.313Z,59.47
2019-02-07T12:53:16.017Z,59.70
2019-02-07T12:58:20.095Z,59.93
2019-02-07T13:03:19.700Z,67.93
2019-02-07T13:08:32.737Z,59.03
2019-02-07T13:13:32.530Z,60.33
2019-02-07T13:18:37.416Z,60.23
2019-02-07T13:23:49.923Z,66.53
2019-02-07T13:28:46.599Z,69.47
2019-02-07T13:33:59.493Z,79.57
2019-02-07T13:39:11.815Z,83.67
2019-02-07T13:44:19.304Z,81.70
2019-02-07T13:49:31.947Z,79.57
2019-02-07T13:54:29.635Z,76.47
2019-02-07T13:59:29.002Z,85.63
2019-02-07T14:04:44.249Z,83.27
2019-02-07T14:09:50.201Z,77.63
2019-02-07T14:14:46.749Z,83.97
2019-02-07T14:20:03.725Z,76.30
2019-02-07T14:25:09.722Z,83.60
2019-02-07T14:30:09.468Z,76.23
2019-02-07T14:35:11.301Z,77.80
2019-02-07T14:40:18.261Z,75.70
2019-02-07T14:45:23.745Z,77.97
2019-02-07T14:50:19.805Z,76.20
2019-02-07T14:55:15.201Z,75.03
2019-02-07T15:00:26.242Z,77.03
2019-02-07T15:05:21.401Z,79.73
2019-02-07T15:10:21.278Z,79.23
2019-02-07T15:15:20.470Z,75.43
2019-02-07T15:20:26.103Z,78.37
2019-02-07T15:25:19.906Z,78.10
2019-02-07T15:30:42.826Z,75.07
2019-02-07T15:35:34.747Z,70.33
2019-02-07T15:40:31.238Z,70.20
2019-02-07T15:45:26.915Z,73.07
2019-02-07T15:50:37.852Z,69.23
2019-02-07T15:55:27.937Z,74.53
2019-02-07T16:00:31.026Z,72.53
2019-02-07T16:05:25.974Z,65.90
2019-02-07T16:10:22.495Z,64.93
2019-02-07T16:15:18.178Z,62.57
2019-02-07T16:20:22.040Z,65.80
2019-02-07T16:25:18.386Z,65.23
2019-02-07T16:30:22.371Z,62.23
2019-02-07T16:35:20.571Z,70.67
2019-02-07T16:40:22.427Z,70.30
2019-02-07T16:45:27.024Z,80.07
2019-02-07T16:50:31.514Z,74.87
2019-02-07T16:55:26.703Z,73.47
2019-02-07T17:00:25.877Z,70.97
2019-02-07T17:05:24.256Z,75.57
2019-02-07T17:10:26.365Z,75.03
2019-02-07T17:15:23.675Z,77.73
2019-02-07T17:20:31.066Z,71.20
2019-02-07T17:25:26.539Z,68.10
2019-02-07T17:30:23.063Z,74.67
2019-02-07T17:35:18.743Z,66.67
2019-02-07T17:40:20.444Z,68.73
2019-02-07T17:45:19.582Z,68.20
2019-02-07T17:50:19.637Z,71.03
2019-02-07T17:55:18.390Z,65.47
2019-02-07T18:00:30.484Z,65.80
2019-02-07T18:05:25.140Z,65.47
2019-02-07T18:10:19.984Z,67.43
2019-02-07T18:15:15.004Z,54.87
2019-02-07T18:20:21.728Z,37.50
2019-02-07T18:25:16.756Z,34.23
2019-02-07T18:30:20.591Z,28.77
2019-02-07T18:35:17.084Z,27.63
2019-02-07T18:40:19.100Z,27.90
2019-02-07T18:45:17.981Z,26.37
2019-02-07T18:50:26.184Z,29.77
2019-02-07T18:55:20.849Z,28.80
2019-02-07T19:00:29.099Z,29.30
2019-02-07T19:05:25.040Z,30.63
2019-02-07T19:10:23.472Z,29.97
2019-02-07T19:15:31.105Z,32.17
2019-02-07T19:20:25.706Z,35.53
2019-02-07T19:25:20.704Z,32.70
2019-02-07T19:30:26.558Z,28.27
2019-02-07T19:35:21.215Z,32.43
2019-02-07T19:40:21.069Z,31.37
2019-02-07T19:45:19.644Z,33.20
2019-02-07T19:50:26.976Z,34.67
2019-02-07T19:55:32.928Z,43.33
2019-02-07T20:00:33.740Z,34.37
2019-02-07T20:05:28.742Z,29.80
2019-02-07T20:10:27.139Z,30.80
2019-02-07T20:15:36.174Z,34.83
2019-02-07T20:20:32.076Z,30.17
2019-02-07T20:25:26.920Z,38.23
2019-02-07T20:30:30.762Z,32.80
2019-02-07T20:35:25.634Z,34.70
2019-02-07T20:40:30.997Z,35.10
2019-02-07T20:45:26.791Z,33.47
2019-02-07T20:50:25.588Z,33.40
2019-02-07T20:55:21.099Z,30.70
2019-02-07T21:00:34.098Z,26.73
2019-02-07T21:05:31.373Z,29.40
2019-02-07T21:10:33.055Z,30.87
2019-02-07T21:15:28.087Z,28.43
2019-02-07T21:20:31.718Z,25.63
2019-02-07T21:25:39.673Z,23.87
2019-02-07T21:30:34.934Z,22.13
2019-02-07T21:35:31.575Z,17.67
2019-02-07T21:40:31.087Z,14.47
2019-02-07T21:45:25.964Z,14.93
2019-02-07T21:50:27.100Z,17.83
2019-02-07T21:55:25.533Z,17.60
2019-02-07T22:00:38.861Z,12.33
2019-02-07T22:05:33.674Z,12.13
2019-02-07T22:10:28.480Z,11.70
2019-02-07T22:15:26.899Z,12.10
2019-02-07T22:20:25.364Z,13.27
2019-02-07T22:25:21.263Z,15.80
2019-02-07T22:30:31.385Z,15.23
2019-02-07T22:35:26.033Z,14.20
2019-02-07T22:40:23.622Z,15.37
2019-02-07T22:45:22.079Z,15.60
2019-02-07T22:50:23.907Z,13.30
2019-02-07T22:55:18.991Z,14.23
2019-02-07T23:00:36.072Z,15.93
2019-02-07T23:05:30.659Z,14.97
2019-02-07T23:10:33.510Z,16.10
2019-02-07T23:15:28.759Z,18.70
2019-02-07T23:20:23.467Z,20.83
2019-02-07T23:25:18.049Z,19.57
2019-02-07T23:30:20.982Z,19.30
2019-02-07T23:35:17.094Z,17.77
2019-02-07T23:40:21.089Z,17.00
2019-02-07T23:45:18.934Z,11.40
2019-02-07T23:50:14.831Z,13.17
2019-02-07T23:55:15.509Z,14.17
